Time,TemperatureF,DewpointF,PressureIn,WindDirection,WindDirectionDegrees,WindSpeedMPH,WindSpeedGustMPH,Humidity,HourlyPrecipIn,Conditions,Clouds,dailyrainin,SoftwareType,DateUTC
2013-03-02 00:05:00,33.8,27.0,30.25,NNW,333,4.0,-999.0,77,-99.99,,,0.00,weatherlink.com 1.10,2013-03-02 06:05:00,
2013-03-02 00:20:00,33.4,27.0,30.25,NNW,332,4.0,-999.0,78,-99.99,,,0.00,weatherlink.com 1.10,2013-03-02 06:20:00,
2013-03-02 00:35:00,32.9,27.0,30.26,NNW,332,4.0,-999.0,78,-99.99,,,0.00,weatherlink.com 1.10,2013-03-02 06:35:00,
2013-03-02 00:50:00,32.7,27.0,30.26,NNW,332,2.0,-999.0,78,-99.99,,,0.00,weatherlink.com 1.10,2013-03-02 06:50:00,
2013-03-02 01:05:00,32.4,27.0,30.26,NNW,330,1.0,-999.0,79,-99.99,,,0.00,weatherlink.com 1.10,2013-03-02 07:05:00,
2013-03-02 01:20:00,32.2,26.0,30.26,NNW,332,2.0,-999.0,78,-99.99,,,0.00,weatherlink.com 1.10,2013-03-02 07:20:00,
2013-03-02 01:35:00,31.8,26.0,30.26,NNW,330,1.0,-999.0,79,-99.99,,,0.00,weatherlink.com 1.10,2013-03-02 07:35:00,
2013-03-02 01:50:00,31.5,26.0,30.27,NNW,330,1.0,-999.0,79,-99.99,,,0.00,weatherlink.com 1.10,2013-03-02 07:50:00,
2013-03-02 02:05:00,31.2,26.0,30.27,NNW,333,2.0,-999.0,80,-99.99,,,0.00,weatherlink.com 1.10,2013-03-02 08:05:00,
2013-03-02 02:20:00,30.9,25.0,30.26,NNW,330,4.0,-999.0,80,-99.99,,,0.00,weatherlink.com 1.10,2013-03-02 08:20:00,
2013-03-02 02:35:00,30.6,25.0,30.26,NNW,333,4.0,-999.0,81,-99.99,,,0.00,weatherlink.com 1.10,2013-03-02 08:35:00,
2013-03-02 02:50:00,30.1,25.0,30.26,NNW,332,4.0,-999.0,81,-99.99,,,0.00,weatherlink.com 1.10,2013-03-02 08:50:00,
2013-03-02 03:05:00,30.0,25.0,30.26,NNW,335,4.0,-999.0,81,-99.99,,,0.00,weatherlink.com 1.10,2013-03-02 09:05:00,
2013-03-02 03:20:00,30.0,25.0,30.26,NW,325,4.0,-999.0,81,-99.99,,,0.00,weatherlink.com 1.10,2013-03-02 09:20:00,
2013-03-02 03:35:00,29.5,24.0,30.27,North,357,6.0,-999.0,81,-99.99,,,0.00,weatherlink.com 1.10,2013-03-02 09:35:00,
2013-03-02 03:50:00,29.4,24.0,30.27,NNW,336,1.0,-999.0,80,-99.99,,,0.00,weatherlink.com 1.10,2013-03-02 09:50:00,
2013-03-02 04:05:00,29.3,24.0,30.27,NNW,337,6.0,-999.0,80,-99.99,,,0.00,weatherlink.com 1.10,2013-03-02 10:05:00,
2013-03-02 04:20:00,29.1,23.0,30.27,NNW,336,1.0,-999.0,79,-99.99,,,0.00,weatherlink.com 1.10,2013-03-02 10:20:00,
2013-03-02 04:50:00,28.5,23.0,30.28,NNW,333,4.0,-999.0,80,-99.99,,,0.00,weatherlink.com 1.10,2013-03-02 10:50:00,
2013-03-02 05:05:00,28.1,23.0,30.28,NNW,335,2.0,-999.0,80,-99.99,,,0.00,weatherlink.com 1.10,2013-03-02 11:05:00,
2013-03-02 05:20:00,27.8,23.0,30.29,NNW,335,2.0,-999.0,81,-99.99,,,0.00,weatherlink.com 1.10,2013-03-02 11:20:00,
2013-03-02 05:35:00,27.3,23.0,30.29,NNW,336,4.0,-999.0,82,-99.99,,,0.00,weatherlink.com 1.10,2013-03-02 11:35:00,
2013-03-02 05:50:00,27.2,22.0,30.30,NNW,336,1.0,-999.0,81,-99.99,,,0.00,weatherlink.com 1.10,2013-03-02 11:50:00,
2013-03-02 06:05:00,27.2,22.0,30.30,NNW,337,2.0,-999.0,79,-99.99,,,0.00,weatherlink.com 1.10,2013-03-02 12:05:00,
2013-03-02 06:20:00,27.0,21.0,30.30,NNW,336,4.0,-999.0,79,-99.99,,,0.00,weatherlink.com 1.10,2013-03-02 12:20:00,
2013-03-02 06:35:00,26.7,21.0,30.31,NNW,337,1.0,-999.0,79,-99.99,,,0.00,weatherlink.com 1.10,2013-03-02 12:35:00,
2013-03-02 06:50:00,26.6,21.0,30.32,NNW,337,2.0,-999.0,78,-99.99,,,0.00,weatherlink.com 1.10,2013-03-02 12:50:00,
2013-03-02 07:06:00,26.4,20.0,30.32,NNW,337,2.0,-999.0,78,-99.99,,,0.00,weatherlink.com 1.10,2013-03-02 13:06:00,
2013-03-02 07:21:00,26.4,21.0,30.33,NNW,337,2.0,-999.0,79,-99.99,,,0.00,weatherlink.com 1.10,2013-03-02 13:21:00,
2013-03-02 07:36:00,26.7,21.0,30.34,NNW,337,4.0,-999.0,79,-99.99,,,0.00,weatherlink.com 1.10,2013-03-02 13:36:00,
2013-03-02 07:51:00,27.8,21.0,30.35,NNW,330,7.0,-999.0,77,-99.99,,,0.00,weatherlink.com 1.10,2013-03-02 13:51:00,
2013-03-02 08:06:00,29.0,22.0,30.36,North,359,2.0,-999.0,74,-99.99,,,0.00,weatherlink.com 1.10,2013-03-02 14:06:00,
2013-03-02 08:21:00,30.1,22.0,30.36,NW,326,2.0,-999.0,71,-99.99,,,0.00,weatherlink.com 1.10,2013-03-02 14:21:00,
2013-03-02 08:36:00,31.3,23.0,30.36,NNW,332,6.0,-999.0,71,-99.99,,,0.00,weatherlink.com 1.10,2013-03-02 14:36:00,
2013-03-02 08:51:00,32.4,22.0,30.36,NNW,342,4.0,-999.0,66,-99.99,,,0.00,weatherlink.com 1.10,2013-03-02 14:51:00,
2013-03-02 09:06:00,33.4,21.0,30.36,NNW,339,2.0,-999.0,61,-99.99,,,0.00,weatherlink.com 1.10,2013-03-02 15:06:00,
2013-03-02 09:21:00,34.1,20.0,30.36,North,4,7.0,-999.0,56,-99.99,,,0.00,weatherlink.com 1.10,2013-03-02 15:21:00,
2013-03-02 09:36:00,34.6,21.0,30.37,NW,322,6.0,-999.0,57,-99.99,,,0.00,weatherlink.com 1.10,2013-03-02 15:36:00,
2013-03-02 09:51:00,35.2,21.0,30.36,North,4,6.0,-999.0,56,-99.99,,,0.00,weatherlink.com 1.10,2013-03-02 15:51:00,
2013-03-02 10:06:00,35.9,21.0,30.36,NNW,347,2.0,-999.0,55,-99.99,,,0.00,weatherlink.com 1.10,2013-03-02 16:06:00,
2013-03-02 10:21:00,36.8,21.0,30.36,NW,320,4.0,-999.0,54,-99.99,,,0.00,weatherlink.com 1.10,2013-03-02 16:21:00,
2013-03-02 10:36:00,37.3,20.0,30.36,NW,309,6.0,-999.0,50,-99.99,,,0.00,weatherlink.com 1.10,2013-03-02 16:36:00,
2013-03-02 10:51:00,38.5,20.0,30.36,NNW,335,8.0,-999.0,48,-99.99,,,0.00,weatherlink.com 1.10,2013-03-02 16:51:00,
2013-03-02 11:06:00,39.8,20.0,30.35,NNW,330,8.0,-999.0,46,-99.99,,,0.00,weatherlink.com 1.10,2013-03-02 17:06:00,
2013-03-02 11:21:00,40.6,20.0,30.34,NNW,337,6.0,-999.0,43,-99.99,,,0.00,weatherlink.com 1.10,2013-03-02 17:21:00,
2013-03-02 11:36:00,41.8,20.0,30.34,NW,326,6.0,-999.0,41,-99.99,,,0.00,weatherlink.com 1.10,2013-03-02 17:36:00,
2013-03-02 11:51:00,42.3,19.0,30.33,NW,316,7.0,-999.0,39,-99.99,,,0.00,weatherlink.com 1.10,2013-03-02 17:51:00,
2013-03-02 12:06:00,43.3,18.0,30.32,NW,322,4.0,-999.0,36,-99.99,,,0.00,weatherlink.com 1.10,2013-03-02 18:06:00,
2013-03-02 12:21:00,44.3,18.0,30.31,NNW,346,4.0,-999.0,35,-99.99,,,0.00,weatherlink.com 1.10,2013-03-02 18:21:00,
2013-03-02 12:36:00,46.1,20.0,30.30,North,0,6.0,-999.0,35,-99.99,,,0.00,weatherlink.com 1.10,2013-03-02 18:36:00,
2013-03-02 12:51:00,46.7,21.0,30.29,NW,326,4.0,-999.0,36,-99.99,,,0.00,weatherlink.com 1.10,2013-03-02 18:51:00,
2013-03-02 13:06:00,46.5,21.0,30.28,North,0,2.0,-999.0,37,-99.99,,,0.00,weatherlink.com 1.10,2013-03-02 19:06:00,
2013-03-02 13:21:00,47.4,21.0,30.27,NW,323,9.0,-999.0,35,-99.99,,,0.00,weatherlink.com 1.10,2013-03-02 19:21:00,
2013-03-02 13:36:00,47.7,20.0,30.26,NW,315,4.0,-999.0,34,-99.99,,,0.00,weatherlink.com 1.10,2013-03-02 19:36:00,
2013-03-02 13:51:00,48.9,21.0,30.25,NNW,333,1.0,-999.0,33,-99.99,,,0.00,weatherlink.com 1.10,2013-03-02 19:51:00,
2013-03-02 14:07:00,49.6,21.0,30.24,NW,305,7.0,-999.0,32,-99.99,,,0.00,weatherlink.com 1.10,2013-03-02 20:07:00,
2013-03-02 14:22:00,50.2,22.0,30.23,NNE,24,6.0,-999.0,33,-99.99,,,0.00,weatherlink.com 1.10,2013-03-02 20:22:00,
2013-03-02 14:37:00,50.7,22.0,30.23,NW,315,1.0,-999.0,32,-99.99,,,0.00,weatherlink.com 1.10,2013-03-02 20:37:00,
2013-03-02 14:52:00,51.7,22.0,30.22,North,7,2.0,-999.0,31,-99.99,,,0.00,weatherlink.com 1.10,2013-03-02 20:52:00,
2013-03-02 15:07:00,52.2,22.0,30.22,North,8,8.0,-999.0,31,-99.99,,,0.00,weatherlink.com 1.10,2013-03-02 21:07:00,
2013-03-02 15:22:00,52.6,22.0,30.21,NW,326,6.0,-999.0,30,-99.99,,,0.00,weatherlink.com 1.10,2013-03-02 21:22:00,
2013-03-02 15:37:00,52.5,23.0,30.21,North,0,2.0,-999.0,32,-99.99,,,0.00,weatherlink.com 1.10,2013-03-02 21:37:00,
2013-03-02 15:52:00,53.1,23.0,30.21,NNW,335,4.0,-999.0,31,-99.99,,,0.00,weatherlink.com 1.10,2013-03-02 21:52:00,
2013-03-02 16:07:00,53.3,23.0,30.20,NNW,333,1.0,-999.0,31,-99.99,,,0.00,weatherlink.com 1.10,2013-03-02 22:07:00,
2013-03-02 16:22:00,52.8,23.0,30.20,North,0,2.0,-999.0,31,-99.99,,,0.00,weatherlink.com 1.10,2013-03-02 22:22:00,
2013-03-02 16:37:00,52.9,24.0,30.20,NNE,16,6.0,-999.0,32,-99.99,,,0.00,weatherlink.com 1.10,2013-03-02 22:37:00,
2013-03-02 16:52:00,53.3,24.0,30.19,North,1,1.0,-999.0,32,-99.99,,,0.00,weatherlink.com 1.10,2013-03-02 22:52:00,
2013-03-02 17:07:00,53.3,24.0,30.19,NNE,13,4.0,-999.0,32,-99.99,,,0.00,weatherlink.com 1.10,2013-03-02 23:07:00,
2013-03-02 17:22:00,53.5,24.0,30.19,NNW,340,4.0,-999.0,32,-99.99,,,0.00,weatherlink.com 1.10,2013-03-02 23:22:00,
2013-03-02 17:37:00,53.2,25.0,30.20,NNW,339,0.0,-999.0,33,-99.99,,,0.00,weatherlink.com 1.10,2013-03-02 23:37:00,
2013-03-02 17:52:00,53.1,25.0,30.20,NNW,339,1.0,-999.0,34,-99.99,,,0.00,weatherlink.com 1.10,2013-03-02 23:52:00,
2013-03-02 18:07:00,52.3,25.0,30.20,NNW,339,0.0,-999.0,34,-99.99,,,0.00,weatherlink.com 1.10,2013-03-03 00:07:00,
2013-03-02 18:22:00,51.0,25.0,30.20,NNW,339,0.0,-999.0,36,-99.99,,,0.00,weatherlink.com 1.10,2013-03-03 00:22:00,
2013-03-02 18:37:00,50.4,25.0,30.20,NNW,339,0.0,-999.0,38,-99.99,,,0.00,weatherlink.com 1.10,2013-03-03 00:37:00,
2013-03-02 18:52:00,49.2,25.0,30.20,NNW,339,0.0,-999.0,39,-99.99,,,0.00,weatherlink.com 1.10,2013-03-03 00:52:00,
2013-03-02 19:07:00,48.3,26.0,30.20,NNW,339,0.0,-999.0,42,-99.99,,,0.00,weatherlink.com 1.10,2013-03-03 01:07:00,
2013-03-02 19:22:00,47.7,25.0,30.20,NNW,339,0.0,-999.0,42,-99.99,,,0.00,weatherlink.com 1.10,2013-03-03 01:22:00,
2013-03-02 19:37:00,47.0,25.0,30.20,NNW,339,0.0,-999.0,43,-99.99,,,0.00,weatherlink.com 1.10,2013-03-03 01:37:00,
2013-03-02 19:52:00,46.0,26.0,30.19,NNW,339,0.0,-999.0,46,-99.99,,,0.00,weatherlink.com 1.10,2013-03-03 01:52:00,
2013-03-02 20:07:00,45.2,26.0,30.19,NNW,339,0.0,-999.0,47,-99.99,,,0.00,weatherlink.com 1.10,2013-03-03 02:07:00,
2013-03-02 20:22:00,44.6,26.0,30.18,NNW,339,0.0,-999.0,49,-99.99,,,0.00,weatherlink.com 1.10,2013-03-03 02:22:00,
2013-03-02 20:37:00,44.3,26.0,30.18,NNW,339,0.0,-999.0,49,-99.99,,,0.00,weatherlink.com 1.10,2013-03-03 02:37:00,
2013-03-02 20:52:00,43.5,26.0,30.18,NNW,339,0.0,-999.0,51,-99.99,,,0.00,weatherlink.com 1.10,2013-03-03 02:52:00,
2013-03-02 21:07:00,43.5,26.0,30.18,NNW,339,0.0,-999.0,50,-99.99,,,0.00,weatherlink.com 1.10,2013-03-03 03:07:00,
2013-03-02 21:22:00,43.3,26.0,30.18,NNW,339,0.0,-999.0,50,-99.99,,,0.00,weatherlink.com 1.10,2013-03-03 03:22:00,
2013-03-02 21:37:00,42.9,26.0,30.19,NNW,339,0.0,-999.0,52,-99.99,,,0.00,weatherlink.com 1.10,2013-03-03 03:37:00,
2013-03-02 21:52:00,42.5,26.0,30.18,NNW,339,0.0,-999.0,53,-99.99,,,0.00,weatherlink.com 1.10,2013-03-03 03:52:00,
2013-03-02 22:07:00,42.3,26.0,30.18,NNW,339,0.0,-999.0,53,-99.99,,,0.00,weatherlink.com 1.10,2013-03-03 04:07:00,
2013-03-02 22:22:00,42.1,26.0,30.18,NNW,339,2.0,-999.0,54,-99.99,,,0.00,weatherlink.com 1.10,2013-03-03 04:22:00,
2013-03-02 22:37:00,41.3,26.0,30.18,NNW,339,2.0,-999.0,55,-99.99,,,0.00,weatherlink.com 1.10,2013-03-03 04:37:00,
2013-03-02 22:52:00,41.1,26.0,30.17,NNW,339,2.0,-999.0,55,-99.99,,,0.00,weatherlink.com 1.10,2013-03-03 04:52:00,
2013-03-02 23:07:00,40.6,26.0,30.17,NNW,339,0.0,-999.0,56,-99.99,,,0.00,weatherlink.com 1.10,2013-03-03 05:07:00,
2013-03-02 23:22:00,40.5,26.0,30.17,NNW,339,1.0,-999.0,56,-99.99,,,0.00,weatherlink.com 1.10,2013-03-03 05:22:00,
2013-03-02 23:37:00,40.3,26.0,30.16,NNW,339,0.0,-999.0,56,-99.99,,,0.00,weatherlink.com 1.10,2013-03-03 05:37:00,
2013-03-02 23:52:00,40.3,26.0,30.16,NNW,339,2.0,-999.0,56,-99.99,,,0.00,weatherlink.com 1.10,2013-03-03 05:52:00,